sensor_id;sensor_type;location;lat;lon;timestamp;temperature;humidity
14471;DHT22;7321;50.802;4.336;2023-01-01T00:01:13;16.70;99.90
14471;DHT22;7321;50.802;4.336;2023-01-01T00:03:41;16.60;99.90
14471;DHT22;7321;50.802;4.336;2023-01-01T00:06:13;16.60;99.90
14471;DHT22;7321;50.802;4.336;2023-01-01T00:08:39;16.60;99.90
14471;DHT22;7321;50.802;4.336;2023-01-01T00:11:08;16.60;99.90
14471;DHT22;7321;50.802;4.336;2023-01-01T00:13:39;16.70;99.90
14471;DHT22;7321;50.802;4.336;2023-01-01T00:16:08;16.70;99.90
14471;DHT22;7321;50.802;4.336;2023-01-01T00:18:39;16.60;99.90
14471;DHT22;7321;50.802;4.336;2023-01-01T00:21:17;16.50;99.90
14471;DHT22;7321;50.802;4.336;2023-01-01T00:23:45;16.40;99.90
14471;DHT22;7321;50.802;4.336;2023-01-01T00:26:15;16.50;99.90
14471;DHT22;7321;50.802;4.336;2023-01-01T00:28:44;16.50;99.90
14471;DHT22;7321;50.802;4.336;2023-01-01T00:31:18;16.40;99.90
14471;DHT22;7321;50.802;4.336;2023-01-01T00:33:52;16.30;99.90
14471;DHT22;7321;50.802;4.336;2023-01-01T00:36:36;16.40;99.90
14471;DHT22;7321;50.802;4.336;2023-01-01T00:39:10;16.40;99.90
14471;DHT22;7321;50.802;4.336;2023-01-01T00:41:37;16.40;99.90
14471;DHT22;7321;50.802;4.336;2023-01-01T00:44:04;16.40;99.90
14471;DHT22;7321;50.802;4.336;2023-01-01T00:46:33;16.40;99.90
14471;DHT22;7321;50.802;4.336;2023-01-01T00:49:00;16.30;99.90
14471;DHT22;7321;50.802;4.336;2023-01-01T00:51:27;16.30;99.90
14471;DHT22;7321;50.802;4.336;2023-01-01T00:53:56;16.30;99.90
14471;DHT22;7321;50.802;4.336;2023-01-01T00:56:23;16.20;99.90
14471;DHT22;7321;50.802;4.336;2023-01-01T00:58:50;16.20;99.90
14471;DHT22;7321;50.802;4.336;2023-01-01T01:01:39;16.20;99.90
14471;DHT22;7321;50.802;4.336;2023-01-01T01:04:06;16.30;99.90
14471;DHT22;7321;50.802;4.336;2023-01-01T01:06:58;16.30;99.90
14471;DHT22;7321;50.802;4.336;2023-01-01T01:09:35;16.30;99.90
14471;DHT22;7321;50.802;4.336;2023-01-01T01:12:06;16.20;99.90
14471;DHT22;7321;50.802;4.336;2023-01-01T01:14:36;16.20;99.90
14471;DHT22;7321;50.802;4.336;2023-01-01T01:17:02;16.20;99.90
14471;DHT22;7321;50.802;4.336;2023-01-01T01:19:41;16.20;99.90
14471;DHT22;7321;50.802;4.336;2023-01-01T01:22:16;16.20;99.90
14471;DHT22;7321;50.802;4.336;2023-01-01T01:24:47;16.20;99.90
14471;DHT22;7321;50.802;4.336;2023-01-01T01:27:19;16.20;99.90
14471;DHT22;7321;50.802;4.336;2023-01-01T01:29:50;16.20;99.90
14471;DHT22;7321;50.802;4.336;2023-01-01T01:32:24;16.20;99.90
14471;DHT22;7321;50.802;4.336;2023-01-01T01:34:53;16.20;99.90
14471;DHT22;7321;50.802;4.336;2023-01-01T01:37:21;16.10;99.90
14471;DHT22;7321;50.802;4.336;2023-01-01T01:39:49;16.20;99.90
14471;DHT22;7321;50.802;4.336;2023-01-01T01:42:22;16.20;99.90
14471;DHT22;7321;50.802;4.336;2023-01-01T01:44:58;16.20;99.90
14471;DHT22;7321;50.802;4.336;2023-01-01T01:47:48;16.30;99.90
14471;DHT22;7321;50.802;4.336;2023-01-01T01:50:35;16.20;99.90
14471;DHT22;7321;50.802;4.336;2023-01-01T01:55:37;16.30;99.90
14471;DHT22;7321;50.802;4.336;2023-01-01T01:58:07;16.50;99.90
14471;DHT22;7321;50.802;4.336;2023-01-01T02:00:37;16.40;99.90
14471;DHT22;7321;50.802;4.336;2023-01-01T02:03:18;16.40;99.90
14471;DHT22;7321;50.802;4.336;2023-01-01T02:05:48;16.30;99.90
14471;DHT22;7321;50.802;4.336;2023-01-01T02:08:17;16.30;99.90
14471;DHT22;7321;50.802;4.336;2023-01-01T02:10:47;16.30;99.90
14471;DHT22;7321;50.802;4.336;2023-01-01T02:13:16;16.30;99.90
14471;DHT22;7321;50.802;4.336;2023-01-01T02:18:50;16.20;99.90
14471;DHT22;7321;50.802;4.336;2023-01-01T02:21:47;16.20;99.90
14471;DHT22;7321;50.802;4.336;2023-01-01T02:24:24;16.10;99.90
14471;DHT22;7321;50.802;4.336;2023-01-01T02:29:51;16.00;99.90
14471;DHT22;7321;50.802;4.336;2023-01-01T02:32:23;16.00;99.90
14471;DHT22;7321;50.802;4.336;2023-01-01T02:35:00;16.00;99.90
14471;DHT22;7321;50.802;4.336;2023-01-01T02:41:52;15.80;99.90
14471;DHT22;7321;50.802;4.336;2023-01-01T02:44:22;15.80;99.90
14471;DHT22;7321;50.802;4.336;2023-01-01T02:46:56;15.70;99.90
14471;DHT22;7321;50.802;4.336;2023-01-01T02:49:24;15.80;99.90
14471;DHT22;7321;50.802;4.336;2023-01-01T02:52:06;15.90;99.90
14471;DHT22;7321;50.802;4.336;2023-01-01T02:54:58;15.90;99.90
14471;DHT22;7321;50.802;4.336;2023-01-01T03:00:08;15.80;99.90
14471;DHT22;7321;50.802;4.336;2023-01-01T03:06:14;15.70;99.90
14471;DHT22;7321;50.802;4.336;2023-01-01T03:08:52;15.80;99.90
14471;DHT22;7321;50.802;4.336;2023-01-01T03:11:23;15.80;99.90
14471;DHT22;7321;50.802;4.336;2023-01-01T03:19:23;15.70;99.90
14471;DHT22;7321;50.802;4.336;2023-01-01T03:22:13;15.70;99.90
14471;DHT22;7321;50.802;4.336;2023-01-01T03:24:57;15.70;99.90
14471;DHT22;7321;50.802;4.336;2023-01-01T03:27:33;15.70;99.90
14471;DHT22;7321;50.802;4.336;2023-01-01T03:30:04;15.70;99.90
14471;DHT22;7321;50.802;4.336;2023-01-01T03:32:48;15.60;99.90
14471;DHT22;7321;50.802;4.336;2023-01-01T03:35:53;15.60;99.90
14471;DHT22;7321;50.802;4.336;2023-01-01T03:46:56;15.40;99.90
14471;DHT22;7321;50.802;4.336;2023-01-01T03:49:23;15.30;99.90
14471;DHT22;7321;50.802;4.336;2023-01-01T04:00:38;15.20;99.90
14471;DHT22;7321;50.802;4.336;2023-01-01T04:05:40;15.10;99.90
14471;DHT22;7321;50.802;4.336;2023-01-01T04:08:10;15.10;99.90
14471;DHT22;7321;50.802;4.336;2023-01-01T04:10:48;15.20;99.90
14471;DHT22;7321;50.802;4.336;2023-01-01T04:13:19;15.20;99.90
14471;DHT22;7321;50.802;4.336;2023-01-01T04:15:49;15.30;99.90
14471;DHT22;7321;50.802;4.336;2023-01-01T04:18:19;15.20;99.90
14471;DHT22;7321;50.802;4.336;2023-01-01T04:20:45;15.20;99.90
14471;DHT22;7321;50.802;4.336;2023-01-01T04:23:12;15.20;99.90
14471;DHT22;7321;50.802;4.336;2023-01-01T04:25:40;15.20;99.90
14471;DHT22;7321;50.802;4.336;2023-01-01T04:28:07;15.30;99.90
14471;DHT22;7321;50.802;4.336;2023-01-01T04:30:36;15.30;99.90
14471;DHT22;7321;50.802;4.336;2023-01-01T04:33:03;15.20;99.90
14471;DHT22;7321;50.802;4.336;2023-01-01T04:35:38;15.30;99.90
14471;DHT22;7321;50.802;4.336;2023-01-01T04:38:14;15.30;99.90
14471;DHT22;7321;50.802;4.336;2023-01-01T04:40:45;15.30;99.90
14471;DHT22;7321;50.802;4.336;2023-01-01T04:43:25;15.30;99.90
14471;DHT22;7321;50.802;4.336;2023-01-01T04:45:57;15.30;99.90
14471;DHT22;7321;50.802;4.336;2023-01-01T04:48:27;15.20;99.90
14471;DHT22;7321;50.802;4.336;2023-01-01T04:50:55;15.20;99.90
14471;DHT22;7321;50.802;4.336;2023-01-01T04:53:28;15.20;99.90
14471;DHT22;7321;50.802;4.336;2023-01-01T04:55:55;15.10;99.90
14471;DHT22;7321;50.802;4.336;2023-01-01T04:58:27;15.10;99.90
14471;DHT22;7321;50.802;4.336;2023-01-01T05:00:57;15.20;99.90
14471;DHT22;7321;50.802;4.336;2023-01-01T05:03:25;15.20;99.90
14471;DHT22;7321;50.802;4.336;2023-01-01T05:08:29;15.30;99.90
14471;DHT22;7321;50.802;4.336;2023-01-01T05:11:05;15.30;99.90
14471;DHT22;7321;50.802;4.336;2023-01-01T05:13:34;15.20;99.90
14471;DHT22;7321;50.802;4.336;2023-01-01T05:16:05;15.20;99.90
14471;DHT22;7321;50.802;4.336;2023-01-01T05:18:35;15.20;99.90
14471;DHT22;7321;50.802;4.336;2023-01-01T05:21:09;15.20;99.90
14471;DHT22;7321;50.802;4.336;2023-01-01T05:23:35;15.10;99.90
14471;DHT22;7321;50.802;4.336;2023-01-01T05:26:19;15.20;99.90
14471;DHT22;7321;50.802;4.336;2023-01-01T05:28:49;15.30;99.90
14471;DHT22;7321;50.802;4.336;2023-01-01T05:31:20;15.30;99.90
14471;DHT22;7321;50.802;4.336;2023-01-01T05:33:48;15.30;99.90
14471;DHT22;7321;50.802;4.336;2023-01-01T05:36:19;15.30;99.90
14471;DHT22;7321;50.802;4.336;2023-01-01T05:38:46;15.40;99.90
14471;DHT22;7321;50.802;4.336;2023-01-01T05:41:18;15.30;99.90
14471;DHT22;7321;50.802;4.336;2023-01-01T05:43:48;15.30;99.90
14471;DHT22;7321;50.802;4.336;2023-01-01T05:46:19;15.30;99.90
14471;DHT22;7321;50.802;4.336;2023-01-01T05:48:47;15.30;99.90
14471;DHT22;7321;50.802;4.336;2023-01-01T05:51:16;15.40;99.90
14471;DHT22;7321;50.802;4.336;2023-01-01T05:53:46;15.30;99.90
14471;DHT22;7321;50.802;4.336;2023-01-01T05:56:16;15.20;99.90
14471;DHT22;7321;50.802;4.336;2023-01-01T05:58:44;15.30;99.90
14471;DHT22;7321;50.802;4.336;2023-01-01T06:01:15;15.30;99.90
14471;DHT22;7321;50.802;4.336;2023-01-01T06:03:46;15.30;99.90
14471;DHT22;7321;50.802;4.336;2023-01-01T06:06:23;15.30;99.90
14471;DHT22;7321;50.802;4.336;2023-01-01T06:08:52;15.30;99.90
14471;DHT22;7321;50.802;4.336;2023-01-01T06:11:20;15.20;99.90
14471;DHT22;7321;50.802;4.336;2023-01-01T06:13:51;15.00;99.90
14471;DHT22;7321;50.802;4.336;2023-01-01T06:16:18;15.00;99.90
14471;DHT22;7321;50.802;4.336;2023-01-01T06:18:46;15.10;99.90
14471;DHT22;7321;50.802;4.336;2023-01-01T06:21:18;15.00;99.90
14471;DHT22;7321;50.802;4.336;2023-01-01T06:23:45;15.10;99.90
14471;DHT22;7321;50.802;4.336;2023-01-01T06:26:18;15.10;99.90
14471;DHT22;7321;50.802;4.336;2023-01-01T06:28:46;15.10;99.90
14471;DHT22;7321;50.802;4.336;2023-01-01T06:31:18;15.10;99.90
14471;DHT22;7321;50.802;4.336;2023-01-01T06:33:46;15.20;99.90
14471;DHT22;7321;50.802;4.336;2023-01-01T06:36:14;15.20;99.90
14471;DHT22;7321;50.802;4.336;2023-01-01T06:38:44;15.20;99.90
14471;DHT22;7321;50.802;4.336;2023-01-01T06:41:16;15.30;99.90
14471;DHT22;7321;50.802;4.336;2023-01-01T06:43:46;15.20;99.90
14471;DHT22;7321;50.802;4.336;2023-01-01T06:46:17;15.20;99.90
14471;DHT22;7321;50.802;4.336;2023-01-01T06:48:45;15.20;99.90
14471;DHT22;7321;50.802;4.336;2023-01-01T06:51:18;15.30;99.90
14471;DHT22;7321;50.802;4.336;2023-01-01T06:53:46;15.20;99.90
14471;DHT22;7321;50.802;4.336;2023-01-01T06:56:16;15.00;99.90
14471;DHT22;7321;50.802;4.336;2023-01-01T06:58:44;15.00;99.90
14471;DHT22;7321;50.802;4.336;2023-01-01T07:01:14;15.10;99.90
14471;DHT22;7321;50.802;4.336;2023-01-01T07:03:48;15.10;99.90
14471;DHT22;7321;50.802;4.336;2023-01-01T07:06:15;15.20;99.90
14471;DHT22;7321;50.802;4.336;2023-01-01T07:08:45;15.00;99.90
14471;DHT22;7321;50.802;4.336;2023-01-01T07:11:16;15.10;99.90
14471;DHT22;7321;50.802;4.336;2023-01-01T07:13:45;14.90;99.90
14471;DHT22;7321;50.802;4.336;2023-01-01T07:16:16;14.80;99.90
14471;DHT22;7321;50.802;4.336;2023-01-01T07:18:44;14.80;99.90
14471;DHT22;7321;50.802;4.336;2023-01-01T07:24:01;14.90;99.90
14471;DHT22;7321;50.802;4.336;2023-01-01T07:26:32;14.90;99.90
14471;DHT22;7321;50.802;4.336;2023-01-01T07:28:58;14.80;99.90
14471;DHT22;7321;50.802;4.336;2023-01-01T07:31:28;14.90;99.90
14471;DHT22;7321;50.802;4.336;2023-01-01T07:33:56;14.80;99.90
14471;DHT22;7321;50.802;4.336;2023-01-01T07:36:26;14.90;99.90
14471;DHT22;7321;50.802;4.336;2023-01-01T07:38:53;14.80;99.90
14471;DHT22;7321;50.802;4.336;2023-01-01T07:41:23;14.80;99.90
14471;DHT22;7321;50.802;4.336;2023-01-01T07:43:50;14.80;99.90
14471;DHT22;7321;50.802;4.336;2023-01-01T07:46:18;14.70;99.90
14471;DHT22;7321;50.802;4.336;2023-01-01T07:48:46;14.70;99.90
14471;DHT22;7321;50.802;4.336;2023-01-01T07:51:17;14.80;99.90
14471;DHT22;7321;50.802;4.336;2023-01-01T07:53:44;14.80;99.90
14471;DHT22;7321;50.802;4.336;2023-01-01T07:56:13;14.60;99.90
14471;DHT22;7321;50.802;4.336;2023-01-01T07:58:40;14.70;99.90
14471;DHT22;7321;50.802;4.336;2023-01-01T08:01:12;14.70;99.90
14471;DHT22;7321;50.802;4.336;2023-01-01T08:03:40;14.60;99.90
14471;DHT22;7321;50.802;4.336;2023-01-01T08:06:12;14.70;99.90
14471;DHT22;7321;50.802;4.336;2023-01-01T08:08:41;14.60;99.90
14471;DHT22;7321;50.802;4.336;2023-01-01T08:11:07;14.60;99.90
14471;DHT22;7321;50.802;4.336;2023-01-01T08:13:35;14.50;99.90
14471;DHT22;7321;50.802;4.336;2023-01-01T08:16:03;14.50;99.90
14471;DHT22;7321;50.802;4.336;2023-01-01T08:18:32;14.50;99.90
14471;DHT22;7321;50.802;4.336;2023-01-01T08:20:57;14.50;99.90
14471;DHT22;7321;50.802;4.336;2023-01-01T08:23:24;14.60;99.90
14471;DHT22;7321;50.802;4.336;2023-01-01T08:26:00;14.50;99.90
14471;DHT22;7321;50.802;4.336;2023-01-01T08:28:27;14.50;99.90
14471;DHT22;7321;50.802;4.336;2023-01-01T08:30:53;14.50;99.90
14471;DHT22;7321;50.802;4.336;2023-01-01T08:33:22;14.50;99.90
14471;DHT22;7321;50.802;4.336;2023-01-01T08:35:54;14.40;99.90
14471;DHT22;7321;50.802;4.336;2023-01-01T08:38:21;14.50;99.90
14471;DHT22;7321;50.802;4.336;2023-01-01T08:40:48;14.50;99.90
14471;DHT22;7321;50.802;4.336;2023-01-01T08:43:18;14.50;99.90
14471;DHT22;7321;50.802;4.336;2023-01-01T08:45:48;14.50;99.90
14471;DHT22;7321;50.802;4.336;2023-01-01T08:48:14;14.50;99.90
14471;DHT22;7321;50.802;4.336;2023-01-01T08:50:41;14.60;99.90
14471;DHT22;7321;50.802;4.336;2023-01-01T08:53:13;14.50;99.90
14471;DHT22;7321;50.802;4.336;2023-01-01T08:55:41;14.50;99.90
14471;DHT22;7321;50.802;4.336;2023-01-01T08:58:08;14.50;99.90
14471;DHT22;7321;50.802;4.336;2023-01-01T09:00:36;14.50;99.90
14471;DHT22;7321;50.802;4.336;2023-01-01T09:03:02;14.50;99.90
14471;DHT22;7321;50.802;4.336;2023-01-01T09:05:29;14.50;99.90
14471;DHT22;7321;50.802;4.336;2023-01-01T09:07:56;14.60;99.90
14471;DHT22;7321;50.802;4.336;2023-01-01T09:10:22;14.50;99.90
14471;DHT22;7321;50.802;4.336;2023-01-01T09:12:49;14.50;99.90
14471;DHT22;7321;50.802;4.336;2023-01-01T09:15:17;14.60;99.90
14471;DHT22;7321;50.802;4.336;2023-01-01T09:17:46;14.60;99.90
14471;DHT22;7321;50.802;4.336;2023-01-01T09:20:15;14.60;99.90
14471;DHT22;7321;50.802;4.336;2023-01-01T09:22:42;14.70;99.90
14471;DHT22;7321;50.802;4.336;2023-01-01T09:25:10;14.70;99.90
14471;DHT22;7321;50.802;4.336;2023-01-01T09:27:36;14.80;99.90
14471;DHT22;7321;50.802;4.336;2023-01-01T09:30:07;14.90;99.90
14471;DHT22;7321;50.802;4.336;2023-01-01T09:32:37;14.80;99.90
14471;DHT22;7321;50.802;4.336;2023-01-01T09:35:07;14.80;99.90
14471;DHT22;7321;50.802;4.336;2023-01-01T09:37:34;14.90;99.90
14471;DHT22;7321;50.802;4.336;2023-01-01T09:40:02;15.00;99.90
14471;DHT22;7321;50.802;4.336;2023-01-01T09:42:50;15.00;99.90
14471;DHT22;7321;50.802;4.336;2023-01-01T09:45:24;15.10;99.90
14471;DHT22;7321;50.802;4.336;2023-01-01T09:48:11;15.20;99.90
14471;DHT22;7321;50.802;4.336;2023-01-01T09:50:44;15.10;99.90
14471;DHT22;7321;50.802;4.336;2023-01-01T09:55:53;15.30;99.90
14471;DHT22;7321;50.802;4.336;2023-01-01T09:58:35;15.40;99.90
14471;DHT22;7321;50.802;4.336;2023-01-01T10:01:19;15.30;99.90
14471;DHT22;7321;50.802;4.336;2023-01-01T10:06:27;15.40;99.90
14471;DHT22;7321;50.802;4.336;2023-01-01T10:11:48;15.20;99.90
14471;DHT22;7321;50.802;4.336;2023-01-01T10:14:33;15.20;99.90
14471;DHT22;7321;50.802;4.336;2023-01-01T10:17:11;15.30;99.90
14471;DHT22;7321;50.802;4.336;2023-01-01T10:19:51;15.20;99.90
14471;DHT22;7321;50.802;4.336;2023-01-01T10:22:40;15.30;99.90
14471;DHT22;7321;50.802;4.336;2023-01-01T10:25:28;15.30;99.90
14471;DHT22;7321;50.802;4.336;2023-01-01T10:28:22;15.30;99.90
14471;DHT22;7321;50.802;4.336;2023-01-01T10:31:21;15.30;99.90
14471;DHT22;7321;50.802;4.336;2023-01-01T10:33:56;15.40;99.90
14471;DHT22;7321;50.802;4.336;2023-01-01T10:36:25;15.50;99.90
14471;DHT22;7321;50.802;4.336;2023-01-01T10:38:52;15.60;99.90
14471;DHT22;7321;50.802;4.336;2023-01-01T10:41:19;15.50;99.90
14471;DHT22;7321;50.802;4.336;2023-01-01T10:43:52;15.50;99.90
14471;DHT22;7321;50.802;4.336;2023-01-01T10:46:21;15.40;99.90
14471;DHT22;7321;50.802;4.336;2023-01-01T10:49:11;15.40;99.90
14471;DHT22;7321;50.802;4.336;2023-01-01T10:51:46;15.60;99.90
14471;DHT22;7321;50.802;4.336;2023-01-01T10:54:36;15.70;99.90
14471;DHT22;7321;50.802;4.336;2023-01-01T10:57:29;15.50;99.90
14471;DHT22;7321;50.802;4.336;2023-01-01T11:00:23;15.30;99.90
14471;DHT22;7321;50.802;4.336;2023-01-01T11:03:17;15.40;99.90
14471;DHT22;7321;50.802;4.336;2023-01-01T11:06:03;15.40;99.90
14471;DHT22;7321;50.802;4.336;2023-01-01T11:08:33;15.40;99.90
14471;DHT22;7321;50.802;4.336;2023-01-01T11:11:03;15.40;99.90
14471;DHT22;7321;50.802;4.336;2023-01-01T11:13:34;15.50;99.90
14471;DHT22;7321;50.802;4.336;2023-01-01T11:16:09;15.60;99.90
14471;DHT22;7321;50.802;4.336;2023-01-01T11:18:39;15.70;99.90
14471;DHT22;7321;50.802;4.336;2023-01-01T11:21:06;15.80;99.90
14471;DHT22;7321;50.802;4.336;2023-01-01T11:23:38;15.80;99.90
14471;DHT22;7321;50.802;4.336;2023-01-01T11:26:07;16.00;99.90
14471;DHT22;7321;50.802;4.336;2023-01-01T11:31:37;16.00;99.90
14471;DHT22;7321;50.802;4.336;2023-01-01T11:37:33;16.00;99.90
14471;DHT22;7321;50.802;4.336;2023-01-01T11:40:05;16.10;99.90
14471;DHT22;7321;50.802;4.336;2023-01-01T11:42:36;16.10;99.90
14471;DHT22;7321;50.802;4.336;2023-01-01T11:45:10;16.10;99.90
14471;DHT22;7321;50.802;4.336;2023-01-01T11:47:38;16.20;99.90
14471;DHT22;7321;50.802;4.336;2023-01-01T11:50:22;16.20;99.90
14471;DHT22;7321;50.802;4.336;2023-01-01T11:52:57;16.20;99.90
14471;DHT22;7321;50.802;4.336;2023-01-01T11:55:37;16.20;99.90
14471;DHT22;7321;50.802;4.336;2023-01-01T12:00:58;16.30;99.90
14471;DHT22;7321;50.802;4.336;2023-01-01T12:03:31;16.50;99.90
14471;DHT22;7321;50.802;4.336;2023-01-01T12:06:22;16.60;99.90
14471;DHT22;7321;50.802;4.336;2023-01-01T12:08:52;16.50;99.90
14471;DHT22;7321;50.802;4.336;2023-01-01T12:14:33;16.40;99.90
14471;DHT22;7321;50.802;4.336;2023-01-01T12:17:27;16.50;99.90
14471;DHT22;7321;50.802;4.336;2023-01-01T12:22:38;16.50;99.90
14471;DHT22;7321;50.802;4.336;2023-01-01T12:25:14;16.40;99.90
14471;DHT22;7321;50.802;4.336;2023-01-01T12:30:42;16.30;99.90
14471;DHT22;7321;50.802;4.336;2023-01-01T12:47:47;16.20;99.90
14471;DHT22;7321;50.802;4.336;2023-01-01T12:58:35;16.30;99.90
14471;DHT22;7321;50.802;4.336;2023-01-01T13:01:11;16.20;99.90
14471;DHT22;7321;50.802;4.336;2023-01-01T13:03:51;16.10;99.90
14471;DHT22;7321;50.802;4.336;2023-01-01T13:09:14;15.90;99.90
14471;DHT22;7321;50.802;4.336;2023-01-01T13:11:55;15.90;99.90
14471;DHT22;7321;50.802;4.336;2023-01-01T13:14:26;15.70;99.90
14471;DHT22;7321;50.802;4.336;2023-01-01T13:16:54;15.80;99.90
14471;DHT22;7321;50.802;4.336;2023-01-01T13:19:42;15.70;99.90
14471;DHT22;7321;50.802;4.336;2023-01-01T13:39:02;15.60;99.90
14471;DHT22;7321;50.802;4.336;2023-01-01T13:41:44;15.60;99.90
14471;DHT22;7321;50.802;4.336;2023-01-01T13:44:12;15.50;99.90
14471;DHT22;7321;50.802;4.336;2023-01-01T14:02:57;15.40;99.90
14471;DHT22;7321;50.802;4.336;2023-01-01T14:05:37;15.30;99.90
14471;DHT22;7321;50.802;4.336;2023-01-01T14:08:23;15.30;99.90
14471;DHT22;7321;50.802;4.336;2023-01-01T14:10:49;15.20;99.90
14471;DHT22;7321;50.802;4.336;2023-01-01T14:13:16;15.30;99.90
14471;DHT22;7321;50.802;4.336;2023-01-01T14:15:55;15.20;99.90
14471;DHT22;7321;50.802;4.336;2023-01-01T14:18:31;15.20;99.90
14471;DHT22;7321;50.802;4.336;2023-01-01T14:20:59;15.20;99.90
14471;DHT22;7321;50.802;4.336;2023-01-01T14:23:34;15.30;99.90
14471;DHT22;7321;50.802;4.336;2023-01-01T14:26:03;15.40;99.90
14471;DHT22;7321;50.802;4.336;2023-01-01T14:28:33;15.30;99.90
14471;DHT22;7321;50.802;4.336;2023-01-01T14:31:04;15.30;99.90
14471;DHT22;7321;50.802;4.336;2023-01-01T14:33:32;15.20;99.90
14471;DHT22;7321;50.802;4.336;2023-01-01T14:36:05;15.30;99.90
14471;DHT22;7321;50.802;4.336;2023-01-01T14:38:33;15.20;99.90
14471;DHT22;7321;50.802;4.336;2023-01-01T14:41:13;15.20;99.90
14471;DHT22;7321;50.802;4.336;2023-01-01T14:43:42;15.20;99.90
14471;DHT22;7321;50.802;4.336;2023-01-01T14:46:31;15.10;99.90
14471;DHT22;7321;50.802;4.336;2023-01-01T14:49:01;15.10;99.90
14471;DHT22;7321;50.802;4.336;2023-01-01T14:51:30;15.10;99.90
14471;DHT22;7321;50.802;4.336;2023-01-01T14:53:58;15.10;99.90
14471;DHT22;7321;50.802;4.336;2023-01-01T14:56:28;15.10;99.90
14471;DHT22;7321;50.802;4.336;2023-01-01T14:59:04;15.10;99.90
14471;DHT22;7321;50.802;4.336;2023-01-01T15:01:31;15.00;99.90
14471;DHT22;7321;50.802;4.336;2023-01-01T15:04:03;15.10;99.90
14471;DHT22;7321;50.802;4.336;2023-01-01T15:06:30;15.20;99.90
14471;DHT22;7321;50.802;4.336;2023-01-01T15:08:57;15.00;99.90
14471;DHT22;7321;50.802;4.336;2023-01-01T15:11:23;14.90;99.90
14471;DHT22;7321;50.802;4.336;2023-01-01T15:13:55;14.90;99.90
14471;DHT22;7321;50.802;4.336;2023-01-01T15:16:21;15.10;99.90
14471;DHT22;7321;50.802;4.336;2023-01-01T15:18:48;14.90;99.90
14471;DHT22;7321;50.802;4.336;2023-01-01T15:23:56;14.80;99.90
14471;DHT22;7321;50.802;4.336;2023-01-01T15:29:01;14.90;99.90
14471;DHT22;7321;50.802;4.336;2023-01-01T15:31:45;14.90;99.90
14471;DHT22;7321;50.802;4.336;2023-01-01T15:36:45;14.60;99.90
14471;DHT22;7321;50.802;4.336;2023-01-01T15:39:11;14.60;99.90
14471;DHT22;7321;50.802;4.336;2023-01-01T15:41:49;14.60;99.90
14471;DHT22;7321;50.802;4.336;2023-01-01T15:44:27;14.60;99.90
14471;DHT22;7321;50.802;4.336;2023-01-01T15:47:03;14.60;99.90
14471;DHT22;7321;50.802;4.336;2023-01-01T15:49:29;14.60;99.90
14471;DHT22;7321;50.802;4.336;2023-01-01T15:52:02;14.60;99.90
14471;DHT22;7321;50.802;4.336;2023-01-01T15:54:28;14.50;99.90
14471;DHT22;7321;50.802;4.336;2023-01-01T15:56:54;14.40;99.90
14471;DHT22;7321;50.802;4.336;2023-01-01T16:01:49;14.60;99.90
14471;DHT22;7321;50.802;4.336;2023-01-01T16:04:21;14.40;99.90
14471;DHT22;7321;50.802;4.336;2023-01-01T16:06:50;14.40;99.90
14471;DHT22;7321;50.802;4.336;2023-01-01T16:09:17;14.40;99.90
14471;DHT22;7321;50.802;4.336;2023-01-01T16:11:44;14.40;99.90
14471;DHT22;7321;50.802;4.336;2023-01-01T16:14:10;14.50;99.90
14471;DHT22;7321;50.802;4.336;2023-01-01T16:16:37;14.30;99.90
14471;DHT22;7321;50.802;4.336;2023-01-01T16:19:04;14.10;99.90
14471;DHT22;7321;50.802;4.336;2023-01-01T16:21:31;14.10;99.90
14471;DHT22;7321;50.802;4.336;2023-01-01T16:24:00;14.10;99.90
14471;DHT22;7321;50.802;4.336;2023-01-01T16:26:26;13.90;99.90
14471;DHT22;7321;50.802;4.336;2023-01-01T16:28:51;13.80;99.90
14471;DHT22;7321;50.802;4.336;2023-01-01T16:31:24;13.80;99.90
14471;DHT22;7321;50.802;4.336;2023-01-01T16:33:55;13.90;99.90
14471;DHT22;7321;50.802;4.336;2023-01-01T16:36:21;14.00;99.90
14471;DHT22;7321;50.802;4.336;2023-01-01T16:38:47;14.00;99.90
14471;DHT22;7321;50.802;4.336;2023-01-01T16:41:14;13.90;99.90
14471;DHT22;7321;50.802;4.336;2023-01-01T16:43:42;14.10;99.90
14471;DHT22;7321;50.802;4.336;2023-01-01T16:46:08;14.00;99.90
14471;DHT22;7321;50.802;4.336;2023-01-01T16:48:35;13.70;99.90
14471;DHT22;7321;50.802;4.336;2023-01-01T16:51:01;13.70;99.90
14471;DHT22;7321;50.802;4.336;2023-01-01T16:53:27;13.60;99.90
14471;DHT22;7321;50.802;4.336;2023-01-01T16:55:53;13.60;99.90
14471;DHT22;7321;50.802;4.336;2023-01-01T16:58:19;13.50;99.90
14471;DHT22;7321;50.802;4.336;2023-01-01T17:00:46;13.50;99.90
14471;DHT22;7321;50.802;4.336;2023-01-01T17:03:14;13.40;99.90
14471;DHT22;7321;50.802;4.336;2023-01-01T17:05:40;13.40;99.90
14471;DHT22;7321;50.802;4.336;2023-01-01T17:08:06;13.40;99.90
14471;DHT22;7321;50.802;4.336;2023-01-01T17:10:32;13.50;99.90
14471;DHT22;7321;50.802;4.336;2023-01-01T17:12:58;13.40;99.90
14471;DHT22;7321;50.802;4.336;2023-01-01T17:15:27;13.30;99.90
14471;DHT22;7321;50.802;4.336;2023-01-01T17:17:53;13.30;99.90
14471;DHT22;7321;50.802;4.336;2023-01-01T17:20:19;13.20;99.90
14471;DHT22;7321;50.802;4.336;2023-01-01T17:22:45;13.30;99.90
14471;DHT22;7321;50.802;4.336;2023-01-01T17:25:11;13.30;99.90
14471;DHT22;7321;50.802;4.336;2023-01-01T17:27:37;13.30;99.90
14471;DHT22;7321;50.802;4.336;2023-01-01T17:30:03;13.30;99.90
14471;DHT22;7321;50.802;4.336;2023-01-01T17:32:35;13.10;99.90
14471;DHT22;7321;50.802;4.336;2023-01-01T17:35:01;13.10;99.90
14471;DHT22;7321;50.802;4.336;2023-01-01T17:37:26;13.10;99.90
14471;DHT22;7321;50.802;4.336;2023-01-01T17:39:52;13.00;99.90
14471;DHT22;7321;50.802;4.336;2023-01-01T17:42:18;13.00;99.90
14471;DHT22;7321;50.802;4.336;2023-01-01T17:44:45;13.00;99.90
14471;DHT22;7321;50.802;4.336;2023-01-01T17:47:11;13.00;99.90
14471;DHT22;7321;50.802;4.336;2023-01-01T17:49:37;13.00;99.90
14471;DHT22;7321;50.802;4.336;2023-01-01T17:52:02;12.90;99.90
14471;DHT22;7321;50.802;4.336;2023-01-01T17:54:28;12.90;99.90
14471;DHT22;7321;50.802;4.336;2023-01-01T17:56:54;12.90;99.90
14471;DHT22;7321;50.802;4.336;2023-01-01T17:59:22;13.00;99.90
14471;DHT22;7321;50.802;4.336;2023-01-01T18:01:49;13.00;99.90
14471;DHT22;7321;50.802;4.336;2023-01-01T18:04:15;12.80;99.90
14471;DHT22;7321;50.802;4.336;2023-01-01T18:06:40;12.60;99.90
14471;DHT22;7321;50.802;4.336;2023-01-01T18:09:08;12.60;99.90
14471;DHT22;7321;50.802;4.336;2023-01-01T18:11:35;12.70;99.90
14471;DHT22;7321;50.802;4.336;2023-01-01T18:14:02;12.80;99.90
14471;DHT22;7321;50.802;4.336;2023-01-01T18:16:29;12.70;99.90
14471;DHT22;7321;50.802;4.336;2023-01-01T18:18:56;12.80;99.90
14471;DHT22;7321;50.802;4.336;2023-01-01T18:21:25;12.90;99.90
14471;DHT22;7321;50.802;4.336;2023-01-01T18:23:53;13.00;99.90
14471;DHT22;7321;50.802;4.336;2023-01-01T18:26:21;13.10;99.90
14471;DHT22;7321;50.802;4.336;2023-01-01T18:28:51;13.10;99.90
14471;DHT22;7321;50.802;4.336;2023-01-01T18:31:18;13.10;99.90
14471;DHT22;7321;50.802;4.336;2023-01-01T18:33:44;13.10;99.90
14471;DHT22;7321;50.802;4.336;2023-01-01T18:36:18;13.10;99.90